Time,TemperatureF,DewpointF,PressureIn,WindDirection,WindDirectionDegrees,WindSpeedMPH,WindSpeedGustMPH,Humidity,HourlyPrecipIn,Conditions,Clouds,dailyrainin,SoftwareType,DateUTC
2013-05-15 00:06:00,73.1,62.0,29.71,South,191,0.0,9.0,69,0.00,,,0.00,weatherlink.com 1.10,2013-05-15 04:06:00,
2013-05-15 00:22:00,72.8,62.0,29.71,SW,231,0.0,7.0,69,0.00,,,0.00,weatherlink.com 1.10,2013-05-15 04:22:00,
2013-05-15 00:38:00,72.6,62.0,29.71,WSW,248,2.0,5.0,69,0.00,,,0.00,weatherlink.com 1.10,2013-05-15 04:38:00,
2013-05-15 00:52:00,72.4,62.0,29.70,SSE,148,3.0,10.0,70,0.00,,,0.00,weatherlink.com 1.10,2013-05-15 04:52:00,
2013-05-15 01:07:00,72.2,62.0,29.70,South,169,3.0,11.0,70,0.00,,,0.00,weatherlink.com 1.10,2013-05-15 05:07:00,
2013-05-15 01:22:00,71.8,62.0,29.69,NW,309,1.0,7.0,70,0.00,,,0.00,weatherlink.com 1.10,2013-05-15 05:22:00,
2013-05-15 01:37:00,71.5,62.0,29.68,South,177,2.0,7.0,71,0.00,,,0.00,weatherlink.com 1.10,2013-05-15 05:37:00,
2013-05-15 01:52:00,71.6,62.0,29.67,South,183,1.0,12.0,71,0.00,,,0.00,weatherlink.com 1.10,2013-05-15 05:52:00,
2013-05-15 02:07:00,71.7,61.0,29.66,SSE,164,5.0,12.0,70,0.00,,,0.00,weatherlink.com 1.10,2013-05-15 06:07:00,
2013-05-15 02:22:00,71.6,61.0,29.65,SSW,205,3.0,16.0,70,0.00,,,0.00,weatherlink.com 1.10,2013-05-15 06:22:00,
2013-05-15 02:37:00,71.7,61.0,29.64,SE,142,7.0,12.0,70,0.00,,,0.00,weatherlink.com 1.10,2013-05-15 06:37:00,
2013-05-15 02:52:00,71.9,61.0,29.64,SSW,197,5.0,7.0,69,0.00,,,0.00,weatherlink.com 1.10,2013-05-15 06:52:00,
2013-05-15 03:07:00,72.7,61.0,29.64,SW,225,1.0,12.0,66,0.00,,,0.00,weatherlink.com 1.10,2013-05-15 07:07:00,
2013-05-15 03:22:00,74.0,60.0,29.64,South,176,5.0,11.0,61,0.00,,,0.00,weatherlink.com 1.10,2013-05-15 07:22:00,
2013-05-15 03:37:00,74.0,59.0,29.64,NNE,22,1.0,11.0,60,0.00,,,0.00,weatherlink.com 1.10,2013-05-15 07:37:00,
2013-05-15 03:52:00,74.7,58.0,29.64,SSW,192,4.0,14.0,57,0.00,,,0.00,weatherlink.com 1.10,2013-05-15 07:52:00,
2013-05-15 04:07:00,75.0,58.0,29.64,West,259,0.0,12.0,56,0.00,,,0.00,weatherlink.com 1.10,2013-05-15 08:07:00,
2013-05-15 04:22:00,75.2,58.0,29.64,SSW,196,2.0,15.0,55,0.00,,,0.00,weatherlink.com 1.10,2013-05-15 08:22:00,
2013-05-15 04:37:00,74.8,58.0,29.63,SW,225,13.0,16.0,56,0.00,,,0.00,weatherlink.com 1.10,2013-05-15 08:37:00,
2013-05-15 04:52:00,74.2,57.0,29.63,SW,227,5.0,16.0,56,0.00,,,0.00,weatherlink.com 1.10,2013-05-15 08:52:00,
2013-05-15 05:07:00,73.9,58.0,29.64,NNE,13,4.0,11.0,57,0.00,,,0.00,weatherlink.com 1.10,2013-05-15 09:07:00,
2013-05-15 05:22:00,73.4,57.0,29.64,SW,219,1.0,12.0,57,0.00,,,0.00,weatherlink.com 1.10,2013-05-15 09:22:00,
2013-05-15 05:37:00,73.1,57.0,29.64,West,273,4.0,13.0,57,0.00,,,0.00,weatherlink.com 1.10,2013-05-15 09:37:00,
2013-05-15 05:52:00,73.2,56.0,29.64,SW,214,4.0,15.0,56,0.00,,,0.00,weatherlink.com 1.10,2013-05-15 09:52:00,
2013-05-15 06:07:00,73.0,57.0,29.65,ESE,103,2.0,11.0,57,0.00,,,0.00,weatherlink.com 1.10,2013-05-15 10:07:00,
2013-05-15 06:22:00,72.8,57.0,29.65,SSW,202,2.0,15.0,57,0.00,,,0.00,weatherlink.com 1.10,2013-05-15 10:22:00,
2013-05-15 06:37:00,72.4,57.0,29.65,NW,315,3.0,13.0,58,0.00,,,0.00,weatherlink.com 1.10,2013-05-15 10:37:00,
2013-05-15 06:52:00,72.1,57.0,29.66,South,191,4.0,12.0,59,0.00,,,0.00,weatherlink.com 1.10,2013-05-15 10:52:00,
2013-05-15 07:07:00,71.8,57.0,29.67,West,267,9.0,12.0,60,0.00,,,0.00,weatherlink.com 1.10,2013-05-15 11:07:00,
2013-05-15 07:52:00,71.1,57.0,29.69,West,275,1.0,11.0,62,0.00,,,0.00,weatherlink.com 1.10,2013-05-15 11:52:00,
2013-05-15 08:07:00,71.2,57.0,29.70,WSW,257,1.0,8.0,62,0.00,,,0.00,weatherlink.com 1.10,2013-05-15 12:07:00,
2013-05-15 08:22:00,71.1,58.0,29.70,South,184,0.0,9.0,63,0.00,,,0.00,weatherlink.com 1.10,2013-05-15 12:22:00,
2013-05-15 08:37:00,71.0,58.0,29.70,SW,234,8.0,8.0,64,0.00,,,0.00,weatherlink.com 1.10,2013-05-15 12:37:00,
2013-05-15 08:52:00,70.4,58.0,29.70,SW,231,0.0,10.0,64,0.00,,,0.00,weatherlink.com 1.10,2013-05-15 12:52:00,
2013-05-15 09:07:00,70.1,59.0,29.70,South,186,0.0,7.0,67,0.00,,,0.00,weatherlink.com 1.10,2013-05-15 13:07:00,
2013-05-15 09:22:00,69.1,59.0,29.72,NW,305,0.0,7.0,70,0.00,,,0.00,weatherlink.com 1.10,2013-05-15 13:22:00,
2013-05-15 09:37:00,68.9,59.0,29.71,WSW,246,0.0,9.0,71,0.00,,,0.00,weatherlink.com 1.10,2013-05-15 13:37:00,
2013-05-15 09:52:00,68.6,59.0,29.70,SSE,148,2.0,4.0,72,0.00,,,0.00,weatherlink.com 1.10,2013-05-15 13:52:00,
2013-05-15 10:07:00,68.5,60.0,29.72,NW,313,1.0,7.0,73,0.00,,,0.00,weatherlink.com 1.10,2013-05-15 14:07:00,
2013-05-15 10:22:00,69.1,60.0,29.72,NW,312,0.0,6.0,72,0.00,,,0.00,weatherlink.com 1.10,2013-05-15 14:22:00,
2013-05-15 10:37:00,69.9,60.0,29.73,West,274,1.0,11.0,72,0.00,,,0.00,weatherlink.com 1.10,2013-05-15 14:37:00,
2013-05-15 10:52:00,71.4,60.0,29.71,SSW,198,3.0,9.0,68,0.00,,,0.00,weatherlink.com 1.10,2013-05-15 14:52:00,
2013-05-15 11:08:00,73.4,62.0,29.73,SW,236,2.0,12.0,67,0.00,,,0.00,weatherlink.com 1.10,2013-05-15 15:08:00,
2013-05-15 11:22:00,75.4,62.0,29.73,SW,235,9.0,10.0,63,0.00,,,0.00,weatherlink.com 1.10,2013-05-15 15:22:00,
2013-05-15 11:38:00,75.8,62.0,29.73,SSW,202,2.0,18.0,62,0.00,,,0.00,weatherlink.com 1.10,2013-05-15 15:38:00,
2013-05-15 11:53:00,76.6,60.0,29.73,West,259,2.0,10.0,56,0.00,,,0.00,weatherlink.com 1.10,2013-05-15 15:53:00,
2013-05-15 12:08:00,77.1,60.0,29.74,NW,319,7.0,16.0,55,0.00,,,0.00,weatherlink.com 1.10,2013-05-15 16:08:00,
2013-05-15 12:23:00,78.1,61.0,29.74,SSW,203,9.0,14.0,55,0.00,,,0.00,weatherlink.com 1.10,2013-05-15 16:23:00,
2013-05-15 12:38:00,79.0,60.0,29.74,WNW,302,10.0,20.0,53,0.00,,,0.00,weatherlink.com 1.10,2013-05-15 16:38:00,
2013-05-15 12:53:00,79.5,61.0,29.74,NNW,341,0.0,12.0,53,0.00,,,0.00,weatherlink.com 1.10,2013-05-15 16:53:00,
2013-05-15 13:23:00,81.2,62.0,29.73,West,273,5.0,11.0,52,0.00,,,0.00,weatherlink.com 1.10,2013-05-15 17:23:00,
2013-05-15 13:38:00,82.0,57.0,29.73,NW,323,5.0,14.0,42,0.00,,,0.00,weatherlink.com 1.10,2013-05-15 17:38:00,
2013-05-15 13:53:00,81.9,57.0,29.73,NW,305,4.0,16.0,42,0.00,,,0.00,weatherlink.com 1.10,2013-05-15 17:53:00,
2013-05-15 14:08:00,82.4,56.0,29.73,SW,224,6.0,11.0,40,0.00,,,0.00,weatherlink.com 1.10,2013-05-15 18:08:00,
2013-05-15 14:23:00,82.6,56.0,29.73,WNW,294,4.0,10.0,40,0.00,,,0.00,weatherlink.com 1.10,2013-05-15 18:23:00,
2013-05-15 14:38:00,83.2,56.0,29.73,WNW,288,5.0,14.0,39,0.00,,,0.00,weatherlink.com 1.10,2013-05-15 18:38:00,
2013-05-15 15:23:00,83.4,55.0,29.73,NW,307,9.0,18.0,38,0.00,,,0.00,weatherlink.com 1.10,2013-05-15 19:23:00,
2013-05-15 15:38:00,84.1,54.0,29.73,West,277,6.0,20.0,36,0.00,,,0.00,weatherlink.com 1.10,2013-05-15 19:38:00,
2013-05-15 15:53:00,83.9,54.0,29.73,WNW,284,6.0,17.0,36,0.00,,,0.00,weatherlink.com 1.10,2013-05-15 19:53:00,
2013-05-15 16:23:00,84.0,54.0,29.73,NW,306,7.0,11.0,36,0.00,,,0.00,weatherlink.com 1.10,2013-05-15 20:23:00,
2013-05-15 16:38:00,83.6,54.0,29.72,WNW,302,13.0,17.0,36,0.00,,,0.00,weatherlink.com 1.10,2013-05-15 20:38:00,
2013-05-15 17:08:00,83.5,54.0,29.72,NW,317,9.0,17.0,36,0.00,,,0.00,weatherlink.com 1.10,2013-05-15 21:08:00,
2013-05-15 17:23:00,83.2,54.0,29.72,WNW,284,13.0,15.0,36,0.00,,,0.00,weatherlink.com 1.10,2013-05-15 21:23:00,
2013-05-15 17:38:00,82.5,53.0,29.73,NNW,327,9.0,12.0,36,0.00,,,0.00,weatherlink.com 1.10,2013-05-15 21:38:00,
2013-05-15 17:53:00,82.6,53.0,29.73,NW,308,9.0,15.0,36,0.00,,,0.00,weatherlink.com 1.10,2013-05-15 21:53:00,
2013-05-15 18:08:00,82.4,53.0,29.73,NW,321,9.0,11.0,36,0.00,,,0.00,weatherlink.com 1.10,2013-05-15 22:08:00,
2013-05-15 18:23:00,82.4,54.0,29.73,NNW,333,5.0,13.0,38,0.00,,,0.00,weatherlink.com 1.10,2013-05-15 22:23:00,
2013-05-15 18:38:00,80.9,53.0,29.72,NNW,328,7.0,13.0,38,0.00,,,0.00,weatherlink.com 1.10,2013-05-15 22:38:00,
2013-05-15 19:08:00,80.7,53.0,29.72,NNW,327,5.0,10.0,39,0.00,,,0.00,weatherlink.com 1.10,2013-05-15 23:08:00,
2013-05-15 19:23:00,79.2,53.0,29.72,NW,322,8.0,12.0,41,0.00,,,0.00,weatherlink.com 1.10,2013-05-15 23:23:00,
2013-05-15 19:38:00,78.2,54.0,29.73,NNW,338,6.0,10.0,43,0.00,,,0.00,weatherlink.com 1.10,2013-05-15 23:38:00,
2013-05-15 19:53:00,76.8,54.0,29.73,WNW,302,5.0,8.0,45,0.00,,,0.00,weatherlink.com 1.10,2013-05-15 23:53:00,
2013-05-15 20:38:00,73.5,54.0,29.73,NW,322,3.0,8.0,51,0.00,,,0.00,weatherlink.com 1.10,2013-05-16 00:38:00,
2013-05-15 20:53:00,72.3,54.0,29.74,NW,314,4.0,6.0,52,0.00,,,0.00,weatherlink.com 1.10,2013-05-16 00:53:00,
2013-05-15 21:08:00,71.2,54.0,29.74,NW,305,0.0,3.0,55,0.00,,,0.00,weatherlink.com 1.10,2013-05-16 01:08:00,
2013-05-15 21:23:00,70.8,53.0,29.75,NW,304,3.0,6.0,53,0.00,,,0.00,weatherlink.com 1.10,2013-05-16 01:23:00,
2013-05-15 21:38:00,70.1,53.0,29.76,NW,306,2.0,5.0,55,0.00,,,0.00,weatherlink.com 1.10,2013-05-16 01:38:00,
2013-05-15 21:53:00,68.9,54.0,29.76,NW,306,3.0,5.0,59,0.00,,,0.00,weatherlink.com 1.10,2013-05-16 01:53:00,
2013-05-15 22:08:00,69.8,53.0,29.77,NW,308,3.0,5.0,56,0.00,,,0.00,weatherlink.com 1.10,2013-05-16 02:08:00,
2013-05-15 22:23:00,69.9,55.0,29.77,NW,313,0.0,4.0,59,0.00,,,0.00,weatherlink.com 1.10,2013-05-16 02:23:00,
2013-05-15 22:38:00,69.1,54.0,29.75,NW,313,0.0,2.0,59,0.00,,,0.00,weatherlink.com 1.10,2013-05-16 02:38:00,
2013-05-15 22:54:00,67.7,56.0,29.75,SSE,164,3.0,4.0,67,0.00,,,0.00,weatherlink.com 1.10,2013-05-16 02:54:00,
2013-05-15 23:24:00,65.6,55.0,29.75,NW,304,0.0,6.0,68,0.00,,,0.00,weatherlink.com 1.10,2013-05-16 03:24:00,
2013-05-15 23:39:00,64.9,54.0,29.76,NW,304,0.0,4.0,68,0.00,,,0.00,weatherlink.com 1.10,2013-05-16 03:39:00,
2013-05-15 23:54:00,64.3,54.0,29.76,NW,304,0.0,1.0,69,0.00,,,0.00,weatherlink.com 1.10,2013-05-16 03:54:00,